createdAt,value
2023-03-19T00:01:46.521Z,7.97
2023-03-19T00:04:48.537Z,8.10
2023-03-19T00:07:50.024Z,8.55
2023-03-19T00:10:51.827Z,8.57
2023-03-19T00:13:53.253Z,10.07
2023-03-19T00:16:54.787Z,9.75
2023-03-19T00:19:56.780Z,10.65
2023-03-19T00:22:58.234Z,10.82
2023-03-19T00:25:59.698Z,10.55
2023-03-19T00:29:01.652Z,10.35
2023-03-19T00:32:03.660Z,10.07
2023-03-19T00:35:08.606Z,9.93
2023-03-19T00:38:10.601Z,9.43
2023-03-19T00:41:12.761Z,9.40
2023-03-19T00:44:14.200Z,9.90
2023-03-19T00:47:15.737Z,9.00
2023-03-19T00:50:17.281Z,8.98
2023-03-19T00:53:19.474Z,9.23
2023-03-19T00:56:21.162Z,9.27
2023-03-19T00:59:22.762Z,9.65
2023-03-19T01:02:24.296Z,9.75
2023-03-19T01:05:27.119Z,9.20
2023-03-19T01:08:29.832Z,9.30
2023-03-19T01:11:32.347Z,8.90
2023-03-19T01:14:34.317Z,8.75
2023-03-19T01:17:36.008Z,8.82
2023-03-19T01:20:39.214Z,8.98
2023-03-19T01:23:41.852Z,8.80
2023-03-19T01:26:43.734Z,8.50
2023-03-19T01:30:01.869Z,8.48
2023-03-19T01:33:26.438Z,8.02
2023-03-19T01:36:37.133Z,8.32
2023-03-19T01:39:40.989Z,8.57
2023-03-19T01:43:14.604Z,7.72
2023-03-19T01:46:51.486Z,7.47
2023-03-19T01:50:30.142Z,7.70
2023-03-19T01:53:57.454Z,7.75
2023-03-19T01:57:22.880Z,7.13
2023-03-19T02:00:29.109Z,7.18
2023-03-19T02:03:31.162Z,7.30
2023-03-19T02:06:46.605Z,6.50
2023-03-19T21:42:53.914Z,2.70
2023-03-19T21:45:56.481Z,2.80
2023-03-19T21:48:59.145Z,3.00
2023-03-19T21:52:00.642Z,3.33
2023-03-19T21:55:02.073Z,2.70
2023-03-19T21:58:03.786Z,2.80
2023-03-19T22:01:11.235Z,2.40
2023-03-19T22:04:12.753Z,2.30
2023-03-19T22:07:14.324Z,2.38
2023-03-19T22:10:15.945Z,2.50
2023-03-19T22:13:24.071Z,2.25
2023-03-19T22:16:25.577Z,2.13
2023-03-19T22:19:28.113Z,2.30
2023-03-19T22:22:29.559Z,2.10
2023-03-19T22:25:36.041Z,2.25
2023-03-19T22:28:37.608Z,2.20
2023-03-19T22:31:40.069Z,2.20
2023-03-19T22:34:41.816Z,2.08
2023-03-19T22:37:43.993Z,1.90
2023-03-19T22:40:51.479Z,2.10
2023-03-19T22:43:53.708Z,2.35
2023-03-19T22:46:57.171Z,2.63
2023-03-19T22:49:59.333Z,2.35
2023-03-19T22:53:01.021Z,2.22
2023-03-19T22:56:03.553Z,2.15
2023-03-19T22:59:05.301Z,2.30
2023-03-19T23:02:12.581Z,2.10
2023-03-19T23:05:35.822Z,2.03
2023-03-19T23:08:37.448Z,1.90
2023-03-19T23:11:39.392Z,1.80
2023-03-19T23:14:40.906Z,1.95
2023-03-19T23:17:43.744Z,2.10
2023-03-19T23:20:46.444Z,2.13
2023-03-19T23:23:47.913Z,2.20
2023-03-19T23:26:52.245Z,1.73
2023-03-19T23:29:53.968Z,2.00
2023-03-19T23:32:56.895Z,1.73
2023-03-19T23:35:59.624Z,2.10
2023-03-19T23:39:01.545Z,2.10
2023-03-19T23:42:06.617Z,2.08
2023-03-19T23:45:24.515Z,2.10
2023-03-19T23:48:33.716Z,2.25
2023-03-19T23:51:35.179Z,1.90
2023-03-19T23:54:37.788Z,1.70
2023-03-19T23:57:40.048Z,2.05
